Time;durP1;ratioP1;P1;durP2;ratioP2;P2;SDS_P1;SDS_P2;PMS_P1;PMS_P2;Temp;Humidity;BMP_temperature;BMP_pressure;BME280_temperature;BME280_humidity;BME280_pressure;Samples;Min_cycle;Max_cycle;Signal;HPM_P1;HPM_P2
2022/09/26 08:25:57;;;;;;;1.77;1.30;;;;;;;21.49;84.07;95603.44;5087345;27;20428;-39
2022/09/26 08:28:35;;;;;;;1.20;1.10;;;;;;;21.55;84.00;95607.66;5068606;28;20213;-38
2022/09/26 08:39:22;;;;;;;1.30;1.20;;;;;;;21.71;82.94;95597.84;5075846;27;20585;-51
2022/09/26 08:42:08;;;;;;;3.83;1.35;;;;;;;21.55;84.22;95599.44;5070267;28;20198;-47
2022/09/26 08:46:31;;;;;;;1.42;1.33;;;;;;;21.44;84.33;95601.63;5056922;28;20217;-49
2022/09/26 08:48:33;;;;;;;1.48;1.20;;;;;;;21.36;84.46;95601.59;5056385;28;20305;-48
2022/09/26 08:51:31;;;;;;;2.53;1.27;;;;;;;21.35;84.34;95591.78;5062905;28;20216;-50
2022/09/26 08:54:05;;;;;;;1.85;1.30;;;;;;;21.36;84.13;95590.63;5062875;28;20212;-49
2022/09/26 08:56:39;;;;;;;1.27;1.10;;;;;;;21.34;83.98;95587.41;5058828;28;20274;-48
2022/09/26 08:59:11;;;;;;;2.15;1.30;;;;;;;21.35;83.96;95594.53;5067976;28;20218;-48
2022/09/26 09:01:43;;;;;;;3.97;1.40;;;;;;;21.34;83.88;95587.41;5083507;28;20277;-47
2022/09/26 09:04:21;;;;;;;6.05;1.20;;;;;;;21.34;83.72;95585.47;5060475;28;20212;-47
2022/09/26 09:06:52;;;;;;;1.60;1.20;;;;;;;21.33;83.64;95589.34;5062443;28;20236;-47
2022/09/26 09:09:19;;;;;;;1.75;1.35;;;;;;;21.34;84.10;95582.72;5065487;28;20205;-48
2022/09/26 09:12:17;;;;;;;1.67;1.50;;;;;;;21.34;83.79;95581.91;5058874;28;20302;-51
2022/09/26 09:15:00;;;;;;;2.85;1.20;;;;;;;21.34;84.03;95590.16;5058926;28;20305;-49
2022/09/26 09:17:47;;;;;;;3.00;1.60;;;;;;;21.31;84.77;95582.53;5060589;28;20273;-50
2022/09/26 09:20:39;;;;;;;1.58;1.48;;;;;;;21.31;85.12;95583.34;5061442;28;20225;-47
2022/09/26 09:23:49;;;;;;;2.38;1.58;;;;;;;21.30;85.64;95586.41;5061329;28;20202;-48
2022/09/26 09:26:25;;;;;;;2.22;1.70;;;;;;;21.29;85.54;95585.59;5062212;28;20205;-47
2022/09/26 09:29:17;;;;;;;2.58;1.55;;;;;;;21.28;85.67;95586.72;5064066;28;20218;-48
2022/09/26 09:31:57;;;;;;;1.75;1.60;;;;;;;21.28;85.80;95583.16;5060266;28;20215;-48
2022/09/26 09:34:48;;;;;;;1.70;1.35;;;;;;;21.28;85.74;95589.47;5067620;28;20233;-49
2022/09/26 09:37:46;;;;;;;1.90;1.70;;;;;;;21.28;85.92;95585.91;5053103;28;20299;-47
2022/09/26 09:40:36;;;;;;;2.47;1.70;;;;;;;21.27;86.10;95587.84;5066221;28;20221;-48
2022/09/26 09:43:06;;;;;;;2.00;1.65;;;;;;;21.28;86.07;95588.66;5061576;28;20201;-51
2022/09/26 09:45:41;;;;;;;2.47;1.83;;;;;;;21.27;86.24;95578.78;5053902;28;20214;-47
2022/09/26 09:48:12;;;;;;;2.00;1.80;;;;;;;21.27;86.23;95581.53;5061812;28;20217;-46
2022/09/26 09:50:50;;;;;;;2.50;1.70;;;;;;;21.30;86.16;95584.47;5041450;28;20210;-45
2022/09/26 09:53:36;;;;;;;1.85;1.70;;;;;;;21.31;86.36;95572.38;5049632;28;20194;-48
2022/09/26 09:56:09;;;;;;;;;;;;;;;-141.59;100.00;61776.25;5050110;28;20353;-59
2022/09/26 09:58:46;;;;;;;3.45;1.80;;;;;;;21.77;nan;95569.13;5043974;28;20425;-43
2022/09/26 10:01:24;;;;;;;1.80;1.70;;;;;;;21.76;nan;95561.19;5044437;28;20447;-62
2022/09/26 10:04:03;;;;;;;2.03;1.70;;;;;;;21.69;nan;95556.16;5051638;28;20212;-61
2022/09/26 10:06:32;;;;;;;3.58;1.73;;;;;;;21.63;nan;95562.94;5041683;28;20199;-61
2022/09/26 10:09:12;;;;;;;2.85;1.70;;;;;;;21.57;nan;95557.91;5056074;28;20235;-61
2022/09/26 10:12:17;;;;;;;1.40;1.30;;;;;;;21.52;nan;95556.91;5047017;28;20367;-61
2022/09/26 10:15:05;;;;;;;1.95;1.70;;;;;;;21.50;nan;95553.69;5038038;28;20222;-62
2022/09/26 10:18:02;;;;;;;2.10;1.48;;;;;;;21.48;nan;95544.97;5053377;28;20280;-61
2022/09/26 10:20:40;;;;;;;1.77;1.67;;;;;;;21.47;nan;95548.03;5035943;28;20218;-61
2022/09/26 10:23:21;;;;;;;2.50;1.70;;;;;;;21.42;nan;95546.25;5052987;28;20272;-61
2022/09/26 10:25:52;;;;;;;1.50;1.40;;;;;;;21.36;nan;95543.94;5061384;28;20233;-61
2022/09/26 10:28:27;;;;;;;1.70;1.55;;;;;;;21.31;nan;95538.59;5049583;28;20222;-61
2022/09/26 10:31:02;;;;;;;1.42;1.33;;;;;;;21.27;nan;95532.13;5039715;28;20206;-61
2022/09/26 10:33:34;;;;;;;1.40;1.30;;;;;;;21.24;nan;95530.84;5037101;28;20297;-61
2022/09/26 10:36:19;;;;;;;1.60;1.50;;;;;;;21.25;nan;95534.38;5046056;28;20282;-61
2022/09/26 10:41:45;;;;;;;1.40;1.30;;;;;;;21.06;nan;95526.38;5033550;28;20209;-61
2022/09/26 10:44:24;;;;;;;1.50;1.40;;;;;;;21.05;nan;95531.03;5042878;28;20268;-61
2022/09/26 10:47:24;;;;;;;2.97;1.70;;;;;;;21.08;nan;95533.16;5050339;28;20201;-63
2022/09/26 10:50:30;;;;;;;1.58;1.40;;;;;;;21.11;nan;95529.78;5006256;28;20195;-63
2022/09/26 10:53:16;;;;;;;2.33;1.50;;;;;;;21.14;nan;95536.56;5052600;28;20217;-63
2022/09/26 10:55:48;;;;;;;2.85;1.60;;;;;;;21.17;nan;95521.41;5050561;28;20202;-63
2022/09/26 10:58:18;;;;;;;1.60;1.50;;;;;;;21.20;nan;95526.28;5041949;28;20301;-64
2022/09/26 11:00:49;;;;;;;1.98;1.48;;;;;;;21.22;nan;95519.34;5043119;28;20206;-63
2022/09/26 11:03:24;;;;;;;1.58;1.30;;;;;;;21.25;nan;95515.16;5043822;28;20281;-63
2022/09/26 11:06:24;;;;;;;1.70;1.52;;;;;;;21.27;nan;95516.44;5033628;28;20218;-63
2022/09/26 11:09:01;;;;;;;1.60;1.50;;;;;;;21.28;nan;95511.78;5038236;28;20241;-63
2022/09/26 11:11:51;;;;;;;1.52;1.42;;;;;;;21.30;nan;95504.84;5028857;28;20249;-63
2022/09/26 11:14:27;;;;;;;2.10;1.50;;;;;;;21.31;nan;95503.72;5035523;28;20199;-63
2022/09/26 11:16:59;;;;;;;2.25;1.90;;;;;;;21.32;nan;95499.84;5043741;28;20198;-63
2022/09/26 11:19:41;;;;;;;1.55;1.45;;;;;;;21.34;nan;95496.78;5041662;28;20234;-60
2022/09/26 11:24:58;;;;;;;1.45;1.30;;;;;;;21.67;78.77;95494.44;5156715;27;20365;-63
2022/09/26 11:27:31;;;;;;;3.05;1.55;;;;;;;21.71;77.11;95485.22;5116809;28;20212;-62
2022/09/26 11:30:07;;;;;;;1.50;1.40;;;;;;;21.69;75.50;95478.44;5116527;28;20199;-60
2022/09/26 11:32:39;;;;;;;4.93;1.52;;;;;;;21.66;75.13;95477.13;5117947;28;20226;-54
2022/09/26 11:35:42;;;;;;;2.20;1.33;;;;;;;21.62;74.96;95467.91;5098492;28;20203;-50
2022/09/26 11:38:22;;;;;;;1.70;1.50;;;;;;;21.65;75.56;95463.72;5099419;28;20196;-64
2022/09/26 11:41:03;;;;;;;3.00;1.48;;;;;;;21.71;76.27;95460.47;5109157;28;20215;-48
2022/09/26 11:43:53;;;;;;;2.20;1.50;;;;;;;21.78;76.43;95454.50;5103973;28;20223;-56
2022/09/26 11:46:53;;;;;;;2.17;1.30;;;;;;;21.82;76.67;95452.72;5096567;28;20216;-51
2022/09/26 11:50:02;;;;;;;1.85;1.45;;;;;;;21.84;76.74;95443.03;5095955;28;20211;-49
2022/09/26 11:52:57;;;;;;;1.95;1.40;;;;;;;21.85;77.18;95438.34;5115197;28;20204;-53
2022/09/26 11:55:35;;;;;;;3.38;1.83;;;;;;;21.87;77.49;95436.06;5098663;28;20196;-52
2022/09/26 11:58:16;;;;;;;2.85;1.60;;;;;;;21.93;78.73;95429.31;5102140;28;20256;-53
2022/09/26 12:00:55;;;;;;;1.73;1.40;;;;;;;21.95;77.97;95418.78;5098280;28;20204;-51
2022/09/26 12:04:07;;;;;;;3.17;1.60;;;;;;;21.95;78.17;95416.03;5095535;28;20225;-62
2022/09/26 12:06:40;;;;;;;2.13;1.60;;;;;;;21.97;78.35;95410.19;5077442;27;20224;-52
2022/09/26 12:09:23;;;;;;;3.28;1.70;;;;;;;21.97;78.51;95413.78;5101415;28;20291;-54
2022/09/26 12:12:05;;;;;;;3.35;1.55;;;;;;;21.96;78.46;95405.84;5095330;28;20193;-62
2022/09/26 12:14:45;;;;;;;2.60;1.83;;;;;;;21.96;78.80;95397.59;5098205;28;20207;-50
2022/09/26 12:17:20;;;;;;;1.45;1.30;;;;;;;21.95;78.83;95391.28;5102679;28;20206;-55
2022/09/26 12:19:57;;;;;;;1.50;1.40;;;;;;;21.95;78.95;95385.00;5094764;28;20211;-45
2022/09/26 12:22:34;;;;;;;1.73;1.40;;;;;;;21.94;78.90;95372.41;5116227;28;20217;-47
2022/09/26 12:25:33;;;;;;;2.95;1.40;;;;;;;21.95;78.78;95365.78;5100544;28;20200;-51
2022/09/26 12:29:26;;;;;;;1.95;1.58;;;;;;;22.04;80.12;95378.38;5096592;27;20297;-48
2022/09/26 12:32:22;;;;;;;2.15;1.20;;;;;;;21.91;73.58;95382.09;5089136;28;20229;-52
2022/09/26 12:35:03;;;;;;;1.52;1.30;;;;;;;21.78;72.80;95372.06;5122834;27;20295;-54
2022/09/26 12:37:58;;;;;;;1.67;1.42;;;;;;;21.72;74.19;95371.44;5091538;28;20200;-55
2022/09/26 12:40:34;;;;;;;3.40;1.45;;;;;;;21.74;74.97;95360.13;5092890;28;20208;-44
2022/09/26 12:43:40;;;;;;;2.95;1.20;;;;;;;21.77;75.11;95365.78;5091889;28;20210;-44
2022/09/26 12:46:37;;;;;;;1.65;1.55;;;;;;;21.77;75.33;95348.50;5084518;28;20213;-45
2022/09/26 12:49:25;;;;;;;1.40;1.30;;;;;;;21.76;75.44;95336.69;5086822;28;20251;-46
2022/09/26 12:51:54;;;;;;;1.42;1.30;;;;;;;21.75;75.68;95340.56;5091060;28;20214;-45
2022/09/26 12:54:48;;;;;;;3.13;1.40;;;;;;;21.75;75.40;95335.06;5091788;28;20200;-46
2022/09/26 12:57:29;;;;;;;3.40;1.33;;;;;;;21.75;75.84;95337.81;5091233;28;20200;-47
2022/09/26 13:00:15;;;;;;;1.33;1.23;;;;;;;21.75;75.85;95340.56;5090542;28;20212;-44
2022/09/26 13:03:35;;;;;;;1.30;1.20;;;;;;;21.76;75.86;95333.94;5097483;28;20200;-46
2022/09/26 13:06:40;;;;;;;1.40;1.23;;;;;;;21.76;75.85;95331.19;5094469;28;20201;-44
2022/09/26 13:09:21;;;;;;;1.55;1.45;;;;;;;21.76;75.81;95328.47;5090256;28;20228;-44
2022/09/26 13:11:58;;;;;;;3.40;1.50;;;;;;;21.77;75.93;95332.00;5088584;28;20255;-44
2022/09/26 13:14:51;;;;;;;1.65;1.48;;;;;;;21.76;75.98;95328.47;5099244;28;20196;-46
2022/09/26 13:17:22;;;;;;;1.55;1.30;;;;;;;21.76;76.24;95320.22;5096302;28;20192;-45
2022/09/26 13:19:58;;;;;;;2.05;1.45;;;;;;;21.76;76.43;95331.19;5102756;28;20203;-47
2022/09/26 13:22:34;;;;;;;2.28;1.30;;;;;;;21.73;76.68;95315.34;5099097;28;20200;-45
2022/09/26 13:25:06;;;;;;;1.38;1.27;;;;;;;21.71;76.82;95314.06;5099480;28;20204;-45
2022/09/26 13:27:39;;;;;;;2.13;1.42;;;;;;;21.70;76.84;95306.94;5102586;28;20278;-45
2022/09/26 13:30:15;;;;;;;2.65;1.40;;;;;;;21.69;77.00;95310.84;5090765;28;20197;-44
2022/09/26 13:32:53;;;;;;;1.48;1.38;;;;;;;21.69;77.25;95317.13;5095350;28;20209;-47
2022/09/26 13:35:24;;;;;;;2.20;1.40;;;;;;;21.67;77.34;95305.69;5091210;28;20209;-44
2022/09/26 13:38:09;;;;;;;1.80;1.48;;;;;;;21.68;77.50;95307.28;5088344;28;20204;-44
2022/09/26 13:40:41;;;;;;;2.00;1.30;;;;;;;21.66;77.58;95298.56;5077601;28;20201;-44
2022/09/26 13:43:20;;;;;;;1.77;1.42;;;;;;;21.66;77.69;95304.06;5081016;28;20216;-45
2022/09/26 13:45:59;;;;;;;2.72;1.38;;;;;;;21.64;77.67;95292.59;5084086;28;20201;-44
2022/09/26 13:48:48;;;;;;;3.10;1.30;;;;;;;21.65;77.91;95293.41;5083750;28;20318;-46
2022/09/26 13:51:23;;;;;;;1.40;1.30;;;;;;;21.65;78.00;95288.72;5073739;28;20202;-46
2022/09/26 13:54:03;;;;;;;2.70;1.30;;;;;;;21.66;77.99;95284.84;5086165;28;20200;-46
2022/09/26 13:56:49;;;;;;;2.75;1.30;;;;;;;21.65;74.94;95282.41;5083136;28;20205;-44
2022/09/26 13:59:26;;;;;;;2.55;1.10;;;;;;;21.61;71.63;95278.69;5081443;28;20213;-46
2022/09/26 14:02:15;;;;;;;1.48;1.38;;;;;;;21.57;71.56;95288.72;5076204;28;20203;-45
2022/09/26 14:04:43;;;;;;;1.73;1.10;;;;;;;21.52;72.73;95274.00;5078100;28;20202;-44
2022/09/26 14:10:20;;;;;;;1.80;1.15;;;;;;;21.53;73.55;95277.56;5081721;28;20209;-46
2022/09/26 14:13:04;;;;;;;1.52;1.40;;;;;;;21.53;73.84;95272.88;5080934;28;20205;-44
2022/09/26 14:15:58;;;;;;;1.45;1.25;;;;;;;21.52;74.08;95265.00;5076184;28;20288;-46
2022/09/26 14:18:54;;;;;;;1.40;1.20;;;;;;;21.51;74.31;95268.88;5085930;28;20209;-44
2022/09/26 14:21:34;;;;;;;1.25;1.15;;;;;;;21.52;74.60;95265.00;5071817;28;20230;-44
2022/09/26 14:24:40;;;;;;;2.85;1.50;;;;;;;21.52;74.71;95257.53;5079677;28;20487;-44
2022/09/26 14:27:43;;;;;;;1.48;1.20;;;;;;;21.52;74.99;95260.28;5072791;28;20232;-46
2022/09/26 14:30:25;;;;;;;1.20;1.10;;;;;;;21.52;75.28;95259.50;5077910;28;20197;-44
2022/09/26 14:33:01;;;;;;;1.45;1.23;;;;;;;21.52;75.56;95259.50;5076361;28;20246;-45
2022/09/26 14:35:31;;;;;;;1.20;1.10;;;;;;;21.52;75.63;95249.28;5080404;28;20201;-46
2022/09/26 14:38:01;;;;;;;1.20;1.10;;;;;;;21.53;75.83;95252.84;5079510;28;20205;-45
2022/09/26 14:40:32;;;;;;;1.20;1.10;;;;;;;21.53;75.98;95239.13;5078633;28;20218;-45
2022/09/26 14:43:05;;;;;;;2.13;1.50;;;;;;;21.53;76.22;95242.66;5073301;28;20213;-46
2022/09/26 14:45:48;;;;;;;2.08;1.08;;;;;;;21.52;76.62;95232.81;5087305;27;20220;-46
2022/09/26 14:48:36;;;;;;;1.88;1.20;;;;;;;21.52;76.77;95224.56;5079705;28;20255;-45
2022/09/26 14:51:06;;;;;;;1.38;1.15;;;;;;;21.52;76.84;95230.06;5086258;28;20227;-44
2022/09/26 14:53:38;;;;;;;1.33;1.20;;;;;;;21.52;77.06;95226.53;5084551;28;20223;-44
2022/09/26 14:56:09;;;;;;;1.52;1.30;;;;;;;21.52;76.93;95227.31;5079711;28;20206;-44
2022/09/26 14:58:49;;;;;;;1.15;1.10;;;;;;;21.52;76.98;95226.53;5075867;28;20276;-46
2022/09/26 15:01:25;;;;;;;1.17;1.08;;;;;;;21.50;76.99;95212.31;5073433;28;20227;-46
2022/09/26 15:03:57;;;;;;;1.35;1.17;;;;;;;21.49;77.02;95210.72;5080094;28;20201;-44
2022/09/26 15:06:26;;;;;;;1.80;1.20;;;;;;;21.48;76.91;95209.09;5087078;28;20192;-44
2022/09/26 15:08:54;;;;;;;2.10;1.20;;;;;;;21.47;76.82;95212.97;5078378;28;20312;-44
2022/09/26 15:11:31;;;;;;;1.20;1.10;;;;;;;21.47;76.69;95207.47;5079045;28;20209;-45
2022/09/26 15:14:03;;;;;;;1.20;1.10;;;;;;;21.46;76.52;95203.91;5080598;28;20326;-44
2022/09/26 15:16:37;;;;;;;5.53;1.30;;;;;;;21.46;76.58;95205.84;5078295;28;20197;-45
2022/09/26 15:19:12;;;;;;;1.90;1.15;;;;;;;21.45;76.60;95215.22;5077678;28;20217;-45
2022/09/26 15:21:42;;;;;;;1.67;1.27;;;;;;;21.46;76.68;95217.66;5075006;28;20255;-44
2022/09/26 15:24:25;;;;;;;1.40;1.25;;;;;;;21.45;76.59;95209.72;5070869;28;20202;-49
2022/09/26 15:26:54;;;;;;;2.25;1.10;;;;;;;21.45;76.72;95215.22;5083498;28;20282;-46
2022/09/26 15:29:21;;;;;;;1.33;1.00;;;;;;;21.46;76.72;95214.09;5032447;28;20234;-45
2022/09/26 15:31:50;;;;;;;1.50;1.10;;;;;;;21.46;76.85;95216.84;5035623;28;20202;-50
2022/09/26 15:34:22;;;;;;;1.80;1.20;;;;;;;21.45;76.99;95201.50;5039295;28;20198;-44
2022/09/26 15:36:54;;;;;;;2.05;1.55;;;;;;;21.47;76.13;95201.97;5036567;28;20293;-54
2022/09/26 15:39:49;;;;;;;1.92;1.60;;;;;;;21.65;72.98;95202.75;5032780;28;20241;-49
2022/09/26 15:45:25;;;;;;;3.17;1.48;;;;;;;21.62;64.46;95204.19;5042584;28;20211;-49
2022/09/26 15:47:54;;;;;;;2.00;1.80;;;;;;;21.50;62.80;95206.81;5044895;28;20198;-50
2022/09/26 15:50:27;;;;;;;2.83;1.75;;;;;;;21.41;63.08;95201.34;5039137;28;20233;-52
2022/09/26 15:52:59;;;;;;;2.80;1.90;;;;;;;21.36;62.78;95195.22;5034224;28;20218;-53
2022/09/26 15:55:32;;;;;;;3.83;2.00;;;;;;;21.33;63.19;95212.34;5040471;28;20210;-49
2022/09/26 15:58:02;;;;;;;2.05;1.67;;;;;;;21.32;63.98;95199.75;5035481;28;20210;-49
2022/09/26 16:00:33;;;;;;;2.50;1.95;;;;;;;21.33;64.63;95207.69;5034115;28;20225;-49
2022/09/26 16:03:19;;;;;;;2.60;1.70;;;;;;;21.35;65.43;95199.13;5031680;28;20286;-49
2022/09/26 16:05:48;;;;;;;2.80;2.00;;;;;;;21.38;65.79;95198.44;5041399;28;20213;-52
2022/09/26 16:08:21;;;;;;;2.00;1.80;;;;;;;21.40;66.06;95201.69;5042016;28;20241;-49
2022/09/26 16:10:54;;;;;;;2.85;1.67;;;;;;;21.42;66.47;95199.41;5036653;28;20497;-49
2022/09/26 16:13:25;;;;;;;2.17;1.80;;;;;;;21.43;66.84;95199.09;5044973;28;20339;-47
2022/09/26 16:16:04;;;;;;;1.90;1.70;;;;;;;21.48;67.31;95195.34;5031069;28;20206;-48
2022/09/26 16:18:38;;;;;;;3.67;1.92;;;;;;;21.54;67.70;95207.78;5037541;28;20268;-47
2022/09/26 16:21:18;;;;;;;2.95;1.90;;;;;;;21.58;68.03;95200.50;5031333;28;20230;-46
2022/09/26 16:23:47;;;;;;;2.90;1.63;;;;;;;21.63;68.20;95197.56;5031960;28;20198;-60
2022/09/26 16:26:30;;;;;;;2.30;1.75;;;;;;;21.65;68.65;95198.06;5040169;28;20201;-49
2022/09/26 16:28:57;;;;;;;1.83;1.70;;;;;;;21.68;68.70;95197.41;5066239;28;20236;-65
2022/09/26 16:31:28;;;;;;;6.68;2.13;;;;;;;21.72;68.92;95201.09;5080889;28;20201;-64
2022/09/26 16:33:57;;;;;;;3.20;1.85;;;;;;;21.75;69.22;95205.94;5078977;28;20295;-49
2022/09/26 16:36:28;;;;;;;2.08;1.80;;;;;;;21.77;69.50;95203.69;5078476;28;20201;-46
2022/09/26 16:38:58;;;;;;;2.30;1.83;;;;;;;21.78;70.19;95202.53;5074594;28;20201;-48
2022/09/26 16:41:29;;;;;;;2.60;1.90;;;;;;;21.81;69.73;95203.81;5071446;28;20189;-54
2022/09/26 16:44:01;;;;;;;2.38;1.75;;;;;;;21.82;69.81;95198.00;5073551;28;20204;-60
2022/09/26 16:46:35;;;;;;;3.28;1.80;;;;;;;21.81;70.02;95207.38;5071882;28;20205;-59
2022/09/26 16:49:05;;;;;;;2.38;1.77;;;;;;;21.83;70.16;95201.56;5073634;28;20378;-61
2022/09/26 16:51:37;;;;;;;2.58;1.90;;;;;;;21.83;70.41;95199.59;5068567;28;20228;-50
2022/09/26 16:54:16;;;;;;;2.03;1.80;;;;;;;21.84;70.63;95201.22;5076192;28;20201;-69
2022/09/26 16:56:45;;;;;;;3.08;1.70;;;;;;;21.86;70.84;95198.94;5072464;28;20205;-65
2022/09/26 16:59:17;;;;;;;2.90;1.80;;;;;;;21.86;71.09;95196.19;5072813;28;20293;-61
2022/09/26 17:01:53;;;;;;;1.95;1.75;;;;;;;21.86;71.14;95195.41;5079437;28;20197;-65
2022/09/26 17:04:24;;;;;;;2.55;1.67;;;;;;;21.85;71.17;95194.59;5073107;28;20197;-65
2022/09/26 17:06:52;;;;;;;2.08;1.60;;;;;;;21.82;71.30;95192.50;5075827;28;20220;-65
2022/09/26 17:09:21;;;;;;;1.88;1.58;;;;;;;21.81;71.55;95201.06;5085355;28;20251;-65
2022/09/26 17:11:52;;;;;;;1.85;1.75;;;;;;;21.78;71.61;95201.72;5080694;28;20201;-65
2022/09/26 17:14:22;;;;;;;3.40;1.90;;;;;;;21.76;71.87;95196.56;5075197;28;20206;-65
2022/09/26 17:16:54;;;;;;;5.28;1.90;;;;;;;21.75;71.86;95196.91;5078969;28;20297;-65
2022/09/26 17:19:22;;;;;;;2.58;2.05;;;;;;;21.73;72.13;95193.66;5085394;28;20194;-65
2022/09/26 17:21:50;;;;;;;1.95;1.77;;;;;;;21.73;72.35;95196.41;5084648;28;20311;-66
2022/09/26 17:24:21;;;;;;;2.33;1.90;;;;;;;21.70;72.32;95191.56;5075505;28;20330;-65
2022/09/26 17:26:53;;;;;;;1.88;1.70;;;;;;;21.69;72.48;95198.22;5085807;28;20261;-65
2022/09/26 17:29:24;;;;;;;3.50;1.80;;;;;;;21.69;72.52;95196.25;5081975;28;20241;-65
2022/09/26 17:31:52;;;;;;;1.75;1.65;;;;;;;21.67;72.83;95195.78;5075446;28;20204;-65
2022/09/26 17:34:20;;;;;;;2.45;1.70;;;;;;;21.64;72.68;95190.94;5080087;28;20292;-65
2022/09/26 17:36:49;;;;;;;1.77;1.67;;;;;;;21.65;72.79;95197.25;5076254;28;20259;-66
2022/09/26 17:39:24;;;;;;;3.05;1.70;;;;;;;21.66;73.05;95194.19;5086378;28;20296;-66
2022/09/26 17:41:52;;;;;;;2.53;1.67;;;;;;;21.67;72.98;95190.31;5085744;28;20201;-67
2022/09/26 17:44:20;;;;;;;1.65;1.55;;;;;;;21.69;73.31;95190.75;5074681;28;20201;-68
2022/09/26 17:46:51;;;;;;;2.90;2.00;;;;;;;21.72;73.02;95201.09;5076413;28;20212;-68
2022/09/26 17:49:26;;;;;;;1.83;1.52;;;;;;;21.72;73.06;95198.34;5078033;28;20311;-68
2022/09/26 17:51:55;;;;;;;1.55;1.45;;;;;;;21.74;73.13;95200.78;5081271;28;20205;-68
2022/09/26 17:54:29;;;;;;;2.28;1.70;;;;;;;21.71;73.41;95188.50;5085708;28;20281;-68
2022/09/26 17:56:56;;;;;;;1.60;1.50;;;;;;;21.73;73.33;95190.91;5084769;28;20201;-68
2022/09/26 17:59:27;;;;;;;2.03;1.77;;;;;;;21.73;73.32;95194.47;5084032;28;20205;-68
2022/09/26 18:01:58;;;;;;;1.50;1.40;;;;;;;21.70;73.45;95195.13;5078635;28;20205;-68
2022/09/26 18:04:27;;;;;;;2.95;1.30;;;;;;;21.72;73.41;95203.84;5074830;28;20209;-68
2022/09/26 18:06:57;;;;;;;2.67;1.63;;;;;;;21.72;73.43;95198.34;5080171;28;20229;-69
2022/09/26 18:11:26;;;;;;;2.40;1.48;;;;;;;21.78;73.64;95193.47;5070038;27;20292;-57
2022/09/26 18:13:55;;;;;;;1.90;1.50;;;;;;;21.82;73.47;95202.69;5054957;27;20226;-63
2022/09/26 18:16:23;;;;;;;1.65;1.55;;;;;;;21.82;73.55;95191.69;5074536;27;20239;-62
2022/09/26 18:18:51;;;;;;;1.60;1.50;;;;;;;21.97;73.39;95195.81;5068060;27;20208;-61
2022/09/26 18:21:19;;;;;;;1.83;1.45;;;;;;;22.03;73.34;95202.81;5063966;28;20217;-59
2022/09/26 18:23:51;;;;;;;1.80;1.55;;;;;;;22.07;73.31;95210.03;5074077;28;20209;-56
2022/09/26 18:26:28;;;;;;;2.60;1.50;;;;;;;22.08;73.49;95210.84;5066545;28;20220;-60
2022/09/26 18:28:55;;;;;;;3.47;1.63;;;;;;;22.10;73.61;95200.34;5066774;28;20205;-51
2022/09/26 18:31:28;;;;;;;2.40;1.50;;;;;;;22.17;75.55;95206.13;5066424;28;20289;-53
2022/09/26 18:33:55;;;;;;;1.48;1.38;;;;;;;22.17;74.46;95208.88;5071234;28;20212;-48
2022/09/26 18:36:23;;;;;;;2.08;1.70;;;;;;;22.20;74.93;95205.47;5064776;28;20277;-61
2022/09/26 18:38:50;;;;;;;3.72;1.50;;;;;;;22.20;74.81;95203.50;5069761;28;20214;-59
2022/09/26 18:41:19;;;;;;;3.28;1.40;;;;;;;22.23;74.77;95197.34;5065960;27;20247;-56
2022/09/26 18:43:50;;;;;;;1.50;1.35;;;;;;;22.26;74.22;95198.63;5067514;28;20198;-58
2022/09/26 18:46:18;;;;;;;1.83;1.73;;;;;;;22.28;73.99;95193.63;5069750;28;20217;-52
2022/09/26 18:48:46;;;;;;;1.65;1.35;;;;;;;22.31;73.96;95192.13;5066010;28;20197;-59
2022/09/26 18:51:14;;;;;;;3.92;1.40;;;;;;;22.32;74.00;95189.03;5066939;28;20229;-57
2022/09/26 18:53:41;;;;;;;1.52;1.40;;;;;;;22.35;75.92;95182.88;5066822;28;20274;-44
2022/09/26 18:58:55;;;;;;;3.25;1.30;;;;;;;22.36;74.02;95191.94;5071527;28;20225;-50
2022/09/26 19:01:27;;;;;;;2.75;1.35;;;;;;;22.38;74.00;95195.16;5067102;28;20201;-65
2022/09/26 19:03:57;;;;;;;2.63;1.80;;;;;;;22.40;73.87;95190.94;5067746;28;20197;-48
2022/09/26 19:06:27;;;;;;;3.03;1.52;;;;;;;22.42;73.80;95194.16;5068795;28;20198;-57
2022/09/26 19:08:58;;;;;;;2.42;1.45;;;;;;;22.43;73.88;95187.53;5071568;28;20225;-47
2022/09/26 19:11:26;;;;;;;1.42;1.20;;;;;;;22.41;74.18;95192.56;5066171;27;20221;-58
2022/09/26 19:13:55;;;;;;;1.98;1.40;;;;;;;22.35;73.89;95179.31;5071109;27;20279;-59
2022/09/26 19:16:23;;;;;;;2.88;1.60;;;;;;;22.39;73.96;95186.56;5075545;27;20213;-60
2022/09/26 19:18:50;;;;;;;4.90;1.30;;;;;;;22.36;74.14;95172.69;5076234;27;20213;-59
2022/09/26 19:21:26;;;;;;;1.92;1.30;;;;;;;22.33;74.26;95162.34;5076530;27;20226;-59
2022/09/26 19:23:53;;;;;;;1.30;1.20;;;;;;;22.30;74.20;95161.06;5055295;28;20233;-60
2022/09/26 19:26:26;;;;;;;3.63;1.50;;;;;;;22.29;74.29;95155.91;5058560;28;20206;-59
2022/09/26 19:28:56;;;;;;;1.60;1.50;;;;;;;22.27;74.09;95153.50;5065328;27;20202;-59
2022/09/26 19:31:23;;;;;;;1.45;1.35;;;;;;;22.25;74.30;95156.56;5063236;28;20221;-59
2022/09/26 19:33:50;;;;;;;1.67;1.20;;;;;;;22.23;74.31;95133.28;5057033;27;20194;-59
2022/09/26 19:36:19;;;;;;;1.40;1.27;;;;;;;22.21;74.33;95143.81;5051195;28;20248;-61
2022/09/26 19:38:46;;;;;;;1.80;1.30;;;;;;;22.20;74.46;95125.72;5075428;27;20202;-59
2022/09/26 19:41:13;;;;;;;1.45;1.33;;;;;;;22.17;74.48;95131.88;5052481;28;20206;-59
2022/09/26 19:43:41;;;;;;;3.25;1.30;;;;;;;22.15;74.67;95126.72;5052465;28;20194;-59
2022/09/26 19:46:16;;;;;;;1.92;1.33;;;;;;;22.12;74.74;95113.63;5049489;28;20214;-59
2022/09/26 19:48:43;;;;;;;1.98;1.30;;;;;;;22.11;74.82;95105.75;5064392;27;20205;-59
2022/09/26 19:51:13;;;;;;;1.40;1.27;;;;;;;22.09;74.98;95097.81;5064604;28;20217;-60
2022/09/26 19:53:41;;;;;;;1.30;1.20;;;;;;;22.10;74.88;95091.19;5052038;27;20305;-61
2022/09/26 19:56:08;;;;;;;1.30;1.20;;;;;;;22.09;75.08;95092.31;5047147;27;20226;-61
2022/09/26 19:58:35;;;;;;;2.60;1.30;;;;;;;22.10;75.13;95091.19;5054590;28;20490;-60
2022/09/26 20:01:15;;;;;;;1.50;1.40;;;;;;;22.09;75.13;95084.06;5062064;28;20189;-60
2022/09/26 20:03:43;;;;;;;2.33;1.40;;;;;;;22.08;75.11;95070.66;5064588;28;20280;-60
2022/09/26 20:06:15;;;;;;;2.05;1.33;;;;;;;22.07;75.32;95072.59;5056229;27;20194;-61
2022/09/26 20:08:42;;;;;;;2.42;1.40;;;;;;;22.07;75.28;95066.28;5057990;28;20197;-61
2022/09/26 20:11:09;;;;;;;3.05;1.33;;;;;;;22.05;75.27;95063.06;5053591;27;20230;-61
2022/09/26 20:16:19;;;;;;;5.50;1.90;;;;;;;22.02;75.34;95067.31;5058981;28;20515;-61
2022/09/26 20:18:49;;;;;;;4.50;1.60;;;;;;;22.01;75.54;95067.63;5046271;27;20199;-61
2022/09/26 20:21:19;;;;;;;4.60;1.70;;;;;;;22.01;75.49;95062.13;5054160;28;20276;-61
2022/09/26 20:23:46;;;;;;;4.10;1.50;;;;;;;22.00;75.44;95052.28;5048626;28;20218;-61
2022/09/26 20:26:16;;;;;;;4.72;1.50;;;;;;;21.99;75.40;95048.72;5061691;28;20267;-60
2022/09/26 20:28:43;;;;;;;3.63;1.50;;;;;;;21.99;75.36;95047.91;5065052;27;20204;-61
2022/09/26 20:31:21;;;;;;;2.50;1.45;;;;;;;21.97;75.58;95039.16;5053289;28;20317;-61
2022/09/26 20:33:50;;;;;;;2.78;1.38;;;;;;;21.96;75.45;95037.56;5064937;28;20262;-61
2022/09/26 20:36:22;;;;;;;3.40;1.65;;;;;;;21.95;75.61;95036.75;5054885;28;20210;-60
2022/09/26 20:38:52;;;;;;;4.40;1.88;;;;;;;21.94;75.64;95026.13;5053989;28;20218;-60
2022/09/26 20:41:23;;;;;;;2.15;1.50;;;;;;;21.94;75.82;95012.38;5054664;28;20210;-60
2022/09/26 20:43:55;;;;;;;2.53;1.40;;;;;;;21.92;75.96;95015.44;5053219;28;20289;-61
2022/09/26 20:46:25;;;;;;;3.63;1.58;;;;;;;21.92;75.89;95009.16;5051844;28;20202;-60
2022/09/26 20:48:52;;;;;;;3.30;1.45;;;;;;;21.87;75.92;95013.69;5065875;28;20189;-60
2022/09/26 20:51:21;;;;;;;3.00;1.35;;;;;;;21.88;76.04;95004.31;5054250;28;20312;-61
2022/09/26 20:53:49;;;;;;;3.20;1.50;;;;;;;21.86;76.17;94992.84;5061658;28;20201;-66
2022/09/26 20:56:19;;;;;;;2.03;1.23;;;;;;;21.85;76.17;94991.25;5050443;28;20282;-61
2022/09/26 20:58:47;;;;;;;2.80;1.40;;;;;;;21.79;76.23;94981.59;5048731;28;20207;-61
2022/09/26 21:01:15;;;;;;;3.97;1.75;;;;;;;21.83;76.33;94982.53;5055265;28;20205;-60
2022/09/26 21:03:47;;;;;;;3.88;1.58;;;;;;;21.82;76.40;94982.88;5051853;28;20202;-60
2022/09/26 21:06:16;;;;;;;2.13;1.20;;;;;;;21.81;76.41;94976.56;5056780;28;20198;-60
2022/09/26 21:08:44;;;;;;;2.85;1.30;;;;;;;21.78;76.61;94966.25;5055171;28;20202;-60
2022/09/26 21:11:13;;;;;;;3.55;1.58;;;;;;;21.79;76.62;94967.84;5062356;28;20294;-61